sensor_id;sensor_type;location;lat;lon;timestamp;pressure;altitude;pressure_sealevel;temperature;humidity
30343;BME280;17145;49.902;8.680;'2024-01-27 00:59:34';101860;;;6;43
30343;BME280;17145;49.902;8.680;'2024-01-27 01:02:01';101860;;;6;42
30343;BME280;17145;49.902;8.680;'2024-01-27 01:04:29';101860;;;6;43
30343;BME280;17145;49.902;8.680;'2024-01-27 01:06:56';101860;;;6;43
30343;BME280;17145;49.902;8.680;'2024-01-27 01:09:24';101860;;;5;43
30343;BME280;17145;49.902;8.680;'2024-01-27 01:11:51';101860;;;6;43
30343;BME280;17145;49.902;8.680;'2024-01-27 01:14:18';101860;;;5;43
30343;BME280;17145;49.902;8.680;'2024-01-27 01:16:46';101860;;;5;43
30343;BME280;17145;49.902;8.680;'2024-01-27 01:19:13';101860;;;5;43
30343;BME280;17145;49.902;8.680;'2024-01-27 01:21:41';101860;;;5;43
30343;BME280;17145;49.902;8.680;'2024-01-27 01:24:08';101870;;;6;43
30343;BME280;17145;49.902;8.680;'2024-01-27 01:26:35';101870;;;5;43
30343;BME280;17145;49.902;8.680;'2024-01-27 01:29:06';101870;;;5;43
30343;BME280;17145;49.902;8.680;'2024-01-27 01:31:34';101880;;;5;43
30343;BME280;17145;49.902;8.680;'2024-01-27 01:34:01';101870;;;5;43
30343;BME280;17145;49.902;8.680;'2024-01-27 01:36:28';101870;;;5;42
30343;BME280;17145;49.902;8.680;'2024-01-27 01:38:56';101870;;;5;42
30343;BME280;17145;49.902;8.680;'2024-01-27 01:41:23';101870;;;5;42
30343;BME280;17145;49.902;8.680;'2024-01-27 01:43:50';101880;;;6;43
30343;BME280;17145;49.902;8.680;'2024-01-27 01:46:18';101880;;;5;43
30343;BME280;17145;49.902;8.680;'2024-01-27 01:48:45';101880;;;5;43
30343;BME280;17145;49.902;8.680;'2024-01-27 01:51:13';101880;;;5;43
30343;BME280;17145;49.902;8.680;'2024-01-27 01:53:40';101890;;;5;43
30343;BME280;17145;49.902;8.680;'2024-01-27 01:56:08';101890;;;5;43
30343;BME280;17145;49.902;8.680;'2024-01-27 01:58:35';101890;;;5;43
30343;BME280;17145;49.902;8.680;'2024-01-27 02:01:03';101890;;;5;43
30343;BME280;17145;49.902;8.680;'2024-01-27 02:03:30';101890;;;5;43
30343;BME280;17145;49.902;8.680;'2024-01-27 02:05:58';101890;;;5;43
30343;BME280;17145;49.902;8.680;'2024-01-27 02:08:25';101890;;;5;44
30343;BME280;17145;49.902;8.680;'2024-01-27 02:10:53';101890;;;5;44
30343;BME280;17145;49.902;8.680;'2024-01-27 02:13:20';101890;;;5;44
30343;BME280;17145;49.902;8.680;'2024-01-27 02:15:48';101890;;;5;44
30343;BME280;17145;49.902;8.680;'2024-01-27 02:18:16';101900;;;5;44
30343;BME280;17145;49.902;8.680;'2024-01-27 02:20:43';101900;;;5;44
30343;BME280;17145;49.902;8.680;'2024-01-27 02:23:10';101910;;;5;44
30343;BME280;17145;49.902;8.680;'2024-01-27 02:25:38';101910;;;5;44
30343;BME280;17145;49.902;8.680;'2024-01-27 02:28:05';101910;;;4;45
30343;BME280;17145;49.902;8.680;'2024-01-27 02:30:33';101920;;;4;45
30343;BME280;17145;49.902;8.680;'2024-01-27 02:33:00';101920;;;5;45
30343;BME280;17145;49.902;8.680;'2024-01-27 02:35:27';101930;;;4;45
30343;BME280;17145;49.902;8.680;'2024-01-27 02:37:55';101930;;;4;45
30343;BME280;17145;49.902;8.680;'2024-01-27 02:40:22';101930;;;4;45
30343;BME280;17145;49.902;8.680;'2024-01-27 02:42:51';101940;;;4;45
30343;BME280;17145;49.902;8.680;'2024-01-27 02:45:18';101940;;;4;45
30343;BME280;17145;49.902;8.680;'2024-01-27 02:47:46';101940;;;5;45
30343;BME280;17145;49.902;8.680;'2024-01-27 02:50:14';101940;;;4;45
30343;BME280;17145;49.902;8.680;'2024-01-27 02:52:41';101940;;;4;45
30343;BME280;17145;49.902;8.680;'2024-01-27 02:55:09';101940;;;4;45
30343;BME280;17145;49.902;8.680;'2024-01-27 02:57:37';101930;;;4;45
30343;BME280;17145;49.902;8.680;'2024-01-27 03:00:06';101930;;;4;45
30343;BME280;17145;49.902;8.680;'2024-01-27 03:02:33';101940;;;4;45
30343;BME280;17145;49.902;8.680;'2024-01-27 03:05:01';101930;;;4;45
30343;BME280;17145;49.902;8.680;'2024-01-27 03:07:28';101940;;;4;46
30343;BME280;17145;49.902;8.680;'2024-01-27 03:09:55';101940;;;4;46
30343;BME280;17145;49.902;8.680;'2024-01-27 03:12:23';101950;;;4;46
30343;BME280;17145;49.902;8.680;'2024-01-27 03:14:50';101950;;;4;46
30343;BME280;17145;49.902;8.680;'2024-01-27 03:17:18';101950;;;4;46
30343;BME280;17145;49.902;8.680;'2024-01-27 03:19:45';101950;;;4;46
30343;BME280;17145;49.902;8.680;'2024-01-27 03:22:13';101950;;;4;46
30343;BME280;17145;49.902;8.680;'2024-01-27 03:24:40';101950;;;4;46
30343;BME280;17145;49.902;8.680;'2024-01-27 03:27:07';101950;;;4;47
30343;BME280;17145;49.902;8.680;'2024-01-27 03:29:35';101960;;;4;47
30343;BME280;17145;49.902;8.680;'2024-01-27 03:32:03';101960;;;4;47
30343;BME280;17145;49.902;8.680;'2024-01-27 03:34:30';101950;;;3;47
30343;BME280;17145;49.902;8.680;'2024-01-27 03:36:57';101950;;;4;47
30343;BME280;17145;49.902;8.680;'2024-01-27 03:39:26';101960;;;4;47
30343;BME280;17145;49.902;8.680;'2024-01-27 03:41:53';101960;;;4;47
30343;BME280;17145;49.902;8.680;'2024-01-27 03:44:20';101970;;;4;47
30343;BME280;17145;49.902;8.680;'2024-01-27 03:46:48';101970;;;4;47
30343;BME280;17145;49.902;8.680;'2024-01-27 03:49:15';101970;;;3;47
30343;BME280;17145;49.902;8.680;'2024-01-27 03:51:43';101980;;;4;48
30343;BME280;17145;49.902;8.680;'2024-01-27 03:54:10';101980;;;4;48
30343;BME280;17145;49.902;8.680;'2024-01-27 03:56:38';101980;;;3;47
30343;BME280;17145;49.902;8.680;'2024-01-27 03:59:05';101980;;;3;47
30343;BME280;17145;49.902;8.680;'2024-01-27 04:01:33';101980;;;3;48
30343;BME280;17145;49.902;8.680;'2024-01-27 04:04:00';101980;;;3;48
30343;BME280;17145;49.902;8.680;'2024-01-27 04:06:28';101980;;;3;48
30343;BME280;17145;49.902;8.680;'2024-01-27 04:08:55';101970;;;3;48
30343;BME280;17145;49.902;8.680;'2024-01-27 04:11:22';101970;;;3;48
30343;BME280;17145;49.902;8.680;'2024-01-27 04:13:50';101980;;;3;49
30343;BME280;17145;49.902;8.680;'2024-01-27 04:16:17';101980;;;3;49
30343;BME280;17145;49.902;8.680;'2024-01-27 04:18:44';101970;;;3;48
30343;BME280;17145;49.902;8.680;'2024-01-27 04:21:12';101970;;;3;48
30343;BME280;17145;49.902;8.680;'2024-01-27 04:23:39';101980;;;3;48
30343;BME280;17145;49.902;8.680;'2024-01-27 04:26:06';101980;;;3;49
30343;BME280;17145;49.902;8.680;'2024-01-27 04:28:34';101980;;;3;49
30343;BME280;17145;49.902;8.680;'2024-01-27 04:31:01';101980;;;3;49
30343;BME280;17145;49.902;8.680;'2024-01-27 04:33:28';101980;;;3;49
30343;BME280;17145;49.902;8.680;'2024-01-27 04:35:56';101980;;;3;49
30343;BME280;17145;49.902;8.680;'2024-01-27 04:38:24';101980;;;3;49
30343;BME280;17145;49.902;8.680;'2024-01-27 04:40:51';101980;;;3;49
30343;BME280;17145;49.902;8.680;'2024-01-27 04:43:19';101980;;;3;50
30343;BME280;17145;49.902;8.680;'2024-01-27 04:45:46';101980;;;3;49
30343;BME280;17145;49.902;8.680;'2024-01-27 04:48:13';101980;;;3;49
30343;BME280;17145;49.902;8.680;'2024-01-27 04:50:41';101980;;;3;49
30343;BME280;17145;49.902;8.680;'2024-01-27 04:53:08';101980;;;3;49
30343;BME280;17145;49.902;8.680;'2024-01-27 04:55:36';101990;;;3;49
30343;BME280;17145;49.902;8.680;'2024-01-27 04:58:03';101990;;;3;49
30343;BME280;17145;49.902;8.680;'2024-01-27 05:00:32';101990;;;3;49
30343;BME280;17145;49.902;8.680;'2024-01-27 05:03:00';101990;;;3;49
30343;BME280;17145;49.902;8.680;'2024-01-27 05:05:28';101990;;;3;49
30343;BME280;17145;49.902;8.680;'2024-01-27 05:07:56';101990;;;3;49
30343;BME280;17145;49.902;8.680;'2024-01-27 05:10:23';101990;;;3;49
30343;BME280;17145;49.902;8.680;'2024-01-27 05:12:50';102000;;;3;49
30343;BME280;17145;49.902;8.680;'2024-01-27 05:15:18';102000;;;3;49
30343;BME280;17145;49.902;8.680;'2024-01-27 05:17:45';102010;;;3;49
30343;BME280;17145;49.902;8.680;'2024-01-27 05:20:12';102010;;;3;49
30343;BME280;17145;49.902;8.680;'2024-01-27 05:22:40';102010;;;3;49
30343;BME280;17145;49.902;8.680;'2024-01-27 05:25:08';102010;;;3;49
30343;BME280;17145;49.902;8.680;'2024-01-27 05:27:38';102010;;;3;49
30343;BME280;17145;49.902;8.680;'2024-01-27 05:30:07';102010;;;3;49
30343;BME280;17145;49.902;8.680;'2024-01-27 05:32:35';102010;;;3;49
30343;BME280;17145;49.902;8.680;'2024-01-27 05:35:03';102010;;;3;49
30343;BME280;17145;49.902;8.680;'2024-01-27 05:37:31';102010;;;3;49
30343;BME280;17145;49.902;8.680;'2024-01-27 05:40:00';102020;;;3;49
30343;BME280;17145;49.902;8.680;'2024-01-27 05:42:27';102020;;;3;49
30343;BME280;17145;49.902;8.680;'2024-01-27 05:44:54';102020;;;3;49
30343;BME280;17145;49.902;8.680;'2024-01-27 05:47:21';102020;;;3;49
30343;BME280;17145;49.902;8.680;'2024-01-27 05:49:49';102020;;;3;49
30343;BME280;17145;49.902;8.680;'2024-01-27 05:52:16';102020;;;3;49
30343;BME280;17145;49.902;8.680;'2024-01-27 05:54:43';102020;;;3;49
30343;BME280;17145;49.902;8.680;'2024-01-27 05:57:11';102020;;;3;49
30343;BME280;17145;49.902;8.680;'2024-01-27 05:59:38';102020;;;3;48
30343;BME280;17145;49.902;8.680;'2024-01-27 06:02:05';102030;;;3;49
30343;BME280;17145;49.902;8.680;'2024-01-27 06:04:33';102030;;;3;49
30343;BME280;17145;49.902;8.680;'2024-01-27 06:07:00';102030;;;3;48
30343;BME280;17145;49.902;8.680;'2024-01-27 06:09:28';102030;;;3;49
30343;BME280;17145;49.902;8.680;'2024-01-27 06:11:55';102040;;;3;48
30343;BME280;17145;49.902;8.680;'2024-01-27 06:14:23';102030;;;3;48
30343;BME280;17145;49.902;8.680;'2024-01-27 06:16:50';102030;;;3;49
30343;BME280;17145;49.902;8.680;'2024-01-27 06:19:17';102030;;;3;48
30343;BME280;17145;49.902;8.680;'2024-01-27 06:21:45';102040;;;3;48
30343;BME280;17145;49.902;8.680;'2024-01-27 06:24:12';102040;;;3;49
30343;BME280;17145;49.902;8.680;'2024-01-27 06:26:40';102040;;;3;49
30343;BME280;17145;49.902;8.680;'2024-01-27 06:29:07';102040;;;3;49
30343;BME280;17145;49.902;8.680;'2024-01-27 06:31:35';102050;;;3;49
30343;BME280;17145;49.902;8.680;'2024-01-27 06:34:02';102050;;;3;49
30343;BME280;17145;49.902;8.680;'2024-01-27 06:36:30';102050;;;3;49
30343;BME280;17145;49.902;8.680;'2024-01-27 06:38:57';102050;;;3;49
30343;BME280;17145;49.902;8.680;'2024-01-27 06:41:26';102060;;;3;49
30343;BME280;17145;49.902;8.680;'2024-01-27 06:43:54';102060;;;3;49
30343;BME280;17145;49.902;8.680;'2024-01-27 06:46:21';102050;;;3;49
30343;BME280;17145;49.902;8.680;'2024-01-27 06:48:49';102060;;;3;49
30343;BME280;17145;49.902;8.680;'2024-01-27 06:51:16';102060;;;3;49
30343;BME280;17145;49.902;8.680;'2024-01-27 06:53:44';102060;;;3;49
30343;BME280;17145;49.902;8.680;'2024-01-27 06:56:11';102060;;;3;49
30343;BME280;17145;49.902;8.680;'2024-01-27 06:58:39';102060;;;3;49
30343;BME280;17145;49.902;8.680;'2024-01-27 07:01:06';102070;;;3;49
30343;BME280;17145;49.902;8.680;'2024-01-27 07:03:34';102070;;;3;49
30343;BME280;17145;49.902;8.680;'2024-01-27 07:06:02';102070;;;3;49
30343;BME280;17145;49.902;8.680;'2024-01-27 07:08:30';102070;;;3;49
30343;BME280;17145;49.902;8.680;'2024-01-27 07:10:57';102070;;;3;49
30343;BME280;17145;49.902;8.680;'2024-01-27 07:13:25';102070;;;3;49
30343;BME280;17145;49.902;8.680;'2024-01-27 07:15:52';102070;;;3;49
30343;BME280;17145;49.902;8.680;'2024-01-27 07:18:19';102070;;;3;49
30343;BME280;17145;49.902;8.680;'2024-01-27 07:20:47';102070;;;3;49
30343;BME280;17145;49.902;8.680;'2024-01-27 07:23:14';102080;;;3;49
30343;BME280;17145;49.902;8.680;'2024-01-27 07:25:43';102080;;;2;49
30343;BME280;17145;49.902;8.680;'2024-01-27 07:28:10';102080;;;2;49
30343;BME280;17145;49.902;8.680;'2024-01-27 07:30:38';102080;;;3;49
30343;BME280;17145;49.902;8.680;'2024-01-27 07:33:06';102080;;;2;49
30343;BME280;17145;49.902;8.680;'2024-01-27 07:35:33';102080;;;3;49
30343;BME280;17145;49.902;8.680;'2024-01-27 07:38:01';102080;;;3;49
30343;BME280;17145;49.902;8.680;'2024-01-27 07:40:29';102090;;;3;49
30343;BME280;17145;49.902;8.680;'2024-01-27 07:42:56';102090;;;3;49
30343;BME280;17145;49.902;8.680;'2024-01-27 07:45:23';102090;;;2;49
30343;BME280;17145;49.902;8.680;'2024-01-27 07:47:51';102090;;;2;49
30343;BME280;17145;49.902;8.680;'2024-01-27 07:50:18';102090;;;2;49
30343;BME280;17145;49.902;8.680;'2024-01-27 07:52:45';102090;;;2;49
30343;BME280;17145;49.902;8.680;'2024-01-27 07:55:13';102100;;;2;49
30343;BME280;17145;49.902;8.680;'2024-01-27 07:57:40';102090;;;2;49
30343;BME280;17145;49.902;8.680;'2024-01-27 08:00:09';102090;;;2;49
30343;BME280;17145;49.902;8.680;'2024-01-27 08:02:36';102100;;;2;49
30343;BME280;17145;49.902;8.680;'2024-01-27 08:05:04';102100;;;2;49
30343;BME280;17145;49.902;8.680;'2024-01-27 08:07:32';102110;;;2;49
30343;BME280;17145;49.902;8.680;'2024-01-27 08:09:59';102110;;;2;49
30343;BME280;17145;49.902;8.680;'2024-01-27 08:12:26';102100;;;2;48
30343;BME280;17145;49.902;8.680;'2024-01-27 08:14:54';102100;;;1;49
30343;BME280;17145;49.902;8.680;'2024-01-27 08:17:21';102110;;;2;49
30343;BME280;17145;49.902;8.680;'2024-01-27 08:19:49';102110;;;1;49
30343;BME280;17145;49.902;8.680;'2024-01-27 08:22:16';102110;;;1;49
30343;BME280;17145;49.902;8.680;'2024-01-27 08:24:44';102110;;;1;50
30343;BME280;17145;49.902;8.680;'2024-01-27 08:27:12';102100;;;1;49
30343;BME280;17145;49.902;8.680;'2024-01-27 08:29:40';102100;;;1;50
30343;BME280;17145;49.902;8.680;'2024-01-27 08:32:07';102100;;;1;50
30343;BME280;17145;49.902;8.680;'2024-01-27 08:34:34';102100;;;1;50
30343;BME280;17145;49.902;8.680;'2024-01-27 08:37:02';102100;;;1;50
30343;BME280;17145;49.902;8.680;'2024-01-27 08:39:29';102100;;;1;50
30343;BME280;17145;49.902;8.680;'2024-01-27 08:41:56';102100;;;1;50
30343;BME280;17145;49.902;8.680;'2024-01-27 08:44:24';102090;;;1;50
30343;BME280;17145;49.902;8.680;'2024-01-27 08:46:51';102100;;;1;50
30343;BME280;17145;49.902;8.680;'2024-01-27 08:49:18';102100;;;1;51
30343;BME280;17145;49.902;8.680;'2024-01-27 08:51:46';102110;;;1;51
30343;BME280;17145;49.902;8.680;'2024-01-27 08:54:13';102100;;;1;51
30343;BME280;17145;49.902;8.680;'2024-01-27 08:56:41';102100;;;1;51
30343;BME280;17145;49.902;8.680;'2024-01-27 08:59:08';102110;;;1;51
30343;BME280;17145;49.902;8.680;'2024-01-27 09:01:35';102110;;;1;51
30343;BME280;17145;49.902;8.680;'2024-01-27 09:04:03';102110;;;1;51
30343;BME280;17145;49.902;8.680;'2024-01-27 09:06:30';102100;;;2;51
30343;BME280;17145;49.902;8.680;'2024-01-27 09:08:58';102110;;;2;51
30343;BME280;17145;49.902;8.680;'2024-01-27 09:11:25';102110;;;2;51
30343;BME280;17145;49.902;8.680;'2024-01-27 09:13:53';102110;;;2;51
30343;BME280;17145;49.902;8.680;'2024-01-27 09:16:20';102110;;;2;51
30343;BME280;17145;49.902;8.680;'2024-01-27 09:18:47';102120;;;2;51
30343;BME280;17145;49.902;8.680;'2024-01-27 09:21:15';102110;;;2;51
30343;BME280;17145;49.902;8.680;'2024-01-27 09:23:42';102110;;;2;51
30343;BME280;17145;49.902;8.680;'2024-01-27 09:26:10';102120;;;2;51
30343;BME280;17145;49.902;8.680;'2024-01-27 09:28:37';102120;;;2;51
30343;BME280;17145;49.902;8.680;'2024-01-27 09:31:04';102120;;;2;51
30343;BME280;17145;49.902;8.680;'2024-01-27 09:33:32';102130;;;3;50
30343;BME280;17145;49.902;8.680;'2024-01-27 09:36:00';102120;;;3;50
30343;BME280;17145;49.902;8.680;'2024-01-27 09:38:27';102120;;;3;50
30343;BME280;17145;49.902;8.680;'2024-01-27 09:40:55';102120;;;3;51
30343;BME280;17145;49.902;8.680;'2024-01-27 09:43:22';102130;;;3;50
30343;BME280;17145;49.902;8.680;'2024-01-27 09:45:49';102130;;;3;50
30343;BME280;17145;49.902;8.680;'2024-01-27 09:48:17';102140;;;3;51
30343;BME280;17145;49.902;8.680;'2024-01-27 09:50:44';102140;;;3;50
30343;BME280;17145;49.902;8.680;'2024-01-27 09:53:11';102140;;;3;50
30343;BME280;17145;49.902;8.680;'2024-01-27 09:55:39';102140;;;3;50
30343;BME280;17145;49.902;8.680;'2024-01-27 09:58:06';102140;;;3;50
30343;BME280;17145;49.902;8.680;'2024-01-27 10:00:34';102130;;;4;49
30343;BME280;17145;49.902;8.680;'2024-01-27 10:03:01';102130;;;4;50
30343;BME280;17145;49.902;8.680;'2024-01-27 10:05:28';102140;;;4;49
30343;BME280;17145;49.902;8.680;'2024-01-27 10:07:56';102140;;;4;48
30343;BME280;17145;49.902;8.680;'2024-01-27 10:10:23';102140;;;4;48
30343;BME280;17145;49.902;8.680;'2024-01-27 10:12:50';102140;;;4;49
30343;BME280;17145;49.902;8.680;'2024-01-27 10:15:18';102150;;;4;48
30343;BME280;17145;49.902;8.680;'2024-01-27 10:17:45';102160;;;4;48
30343;BME280;17145;49.902;8.680;'2024-01-27 10:20:12';102160;;;4;47
30343;BME280;17145;49.902;8.680;'2024-01-27 10:22:40';102170;;;4;47
30343;BME280;17145;49.902;8.680;'2024-01-27 10:25:08';102170;;;4;48
30343;BME280;17145;49.902;8.680;'2024-01-27 10:27:35';102160;;;5;48
30343;BME280;17145;49.902;8.680;'2024-01-27 10:30:03';102170;;;5;48
30343;BME280;17145;49.902;8.680;'2024-01-27 10:32:30';102160;;;5;47
30343;BME280;17145;49.902;8.680;'2024-01-27 10:34:58';102160;;;5;47
30343;BME280;17145;49.902;8.680;'2024-01-27 10:37:26';102170;;;5;47
30343;BME280;17145;49.902;8.680;'2024-01-27 10:39:53';102170;;;5;47
30343;BME280;17145;49.902;8.680;'2024-01-27 10:42:21';102170;;;5;47
30343;BME280;17145;49.902;8.680;'2024-01-27 10:44:49';102170;;;5;47
30343;BME280;17145;49.902;8.680;'2024-01-27 10:47:18';102170;;;5;47
30343;BME280;17145;49.902;8.680;'2024-01-27 10:49:47';102170;;;5;45
30343;BME280;17145;49.902;8.680;'2024-01-27 10:52:15';102170;;;5;45
30343;BME280;17145;49.902;8.680;'2024-01-27 10:54:42';102170;;;5;45
30343;BME280;17145;49.902;8.680;'2024-01-27 10:57:11';102180;;;5;44
30343;BME280;17145;49.902;8.680;'2024-01-27 10:59:41';102180;;;6;45
30343;BME280;17145;49.902;8.680;'2024-01-27 11:02:10';102180;;;5;45
30343;BME280;17145;49.902;8.680;'2024-01-27 11:04:40';102180;;;5;45
30343;BME280;17145;49.902;8.680;'2024-01-27 11:07:08';102180;;;5;45
30343;BME280;17145;49.902;8.680;'2024-01-27 11:09:35';102180;;;5;46
30343;BME280;17145;49.902;8.680;'2024-01-27 11:12:03';102180;;;5;44
30343;BME280;17145;49.902;8.680;'2024-01-27 11:14:39';102180;;;5;44
30343;BME280;17145;49.902;8.680;'2024-01-27 11:17:10';102170;;;5;45
30343;BME280;17145;49.902;8.680;'2024-01-27 11:19:38';102170;;;5;46
30343;BME280;17145;49.902;8.680;'2024-01-27 11:22:05';102170;;;5;45
30343;BME280;17145;49.902;8.680;'2024-01-27 11:24:33';102170;;;6;46
30343;BME280;17145;49.902;8.680;'2024-01-27 11:27:01';102160;;;6;46
30343;BME280;17145;49.902;8.680;'2024-01-27 11:29:28';102160;;;6;45
30343;BME280;17145;49.902;8.680;'2024-01-27 11:31:55';102160;;;6;45
30343;BME280;17145;49.902;8.680;'2024-01-27 11:34:23';102160;;;6;44
30343;BME280;17145;49.902;8.680;'2024-01-27 11:36:50';102160;;;6;44
30343;BME280;17145;49.902;8.680;'2024-01-27 11:39:20';102160;;;6;43
30343;BME280;17145;49.902;8.680;'2024-01-27 11:41:48';102150;;;7;43
30343;BME280;17145;49.902;8.680;'2024-01-27 11:44:17';102140;;;6;42
30343;BME280;17145;49.902;8.680;'2024-01-27 11:46:46';102130;;;6;44
30343;BME280;17145;49.902;8.680;'2024-01-27 11:49:15';102120;;;7;44
30343;BME280;17145;49.902;8.680;'2024-01-27 11:51:45';102120;;;7;44
30343;BME280;17145;49.902;8.680;'2024-01-27 11:54:18';102110;;;7;43
30343;BME280;17145;49.902;8.680;'2024-01-27 11:56:47';102110;;;7;42
30343;BME280;17145;49.902;8.680;'2024-01-27 11:59:19';102120;;;7;42
30343;BME280;17145;49.902;8.680;'2024-01-27 12:01:48';102120;;;7;42
30343;BME280;17145;49.902;8.680;'2024-01-27 12:04:16';102100;;;7;43
30343;BME280;17145;49.902;8.680;'2024-01-27 12:06:45';102100;;;7;43
30343;BME280;17145;49.902;8.680;'2024-01-27 12:09:13';102100;;;7;42
30343;BME280;17145;49.902;8.680;'2024-01-27 12:11:42';102090;;;7;41
30343;BME280;17145;49.902;8.680;'2024-01-27 12:14:10';102100;;;7;42
30343;BME280;17145;49.902;8.680;'2024-01-27 12:16:38';102100;;;7;42
30343;BME280;17145;49.902;8.680;'2024-01-27 12:19:06';102100;;;7;42
30343;BME280;17145;49.902;8.680;'2024-01-27 12:21:34';102100;;;7;42
30343;BME280;17145;49.902;8.680;'2024-01-27 12:24:06';102100;;;7;41
30343;BME280;17145;49.902;8.680;'2024-01-27 12:26:33';102100;;;8;41
30343;BME280;17145;49.902;8.680;'2024-01-27 12:29:06';102100;;;8;40
30343;BME280;17145;49.902;8.680;'2024-01-27 12:31:33';102090;;;8;40
30343;BME280;17145;49.902;8.680;'2024-01-27 12:34:00';102090;;;8;40
30343;BME280;17145;49.902;8.680;'2024-01-27 12:36:28';102100;;;8;39
30343;BME280;17145;49.902;8.680;'2024-01-27 12:38:55';102090;;;8;39
30343;BME280;17145;49.902;8.680;'2024-01-27 12:41:25';102080;;;8;39
30343;BME280;17145;49.902;8.680;'2024-01-27 12:43:53';102080;;;8;40
30343;BME280;17145;49.902;8.680;'2024-01-27 12:46:21';102080;;;8;39
30343;BME280;17145;49.902;8.680;'2024-01-27 12:48:48';102090;;;8;39
30343;BME280;17145;49.902;8.680;'2024-01-27 12:51:15';102100;;;8;39
30343;BME280;17145;49.902;8.680;'2024-01-27 12:53:43';102100;;;9;37
30343;BME280;17145;49.902;8.680;'2024-01-27 12:56:11';102100;;;9;37
30343;BME280;17145;49.902;8.680;'2024-01-27 12:58:43';102100;;;8;37
30343;BME280;17145;49.902;8.680;'2024-01-27 13:01:11';102110;;;9;37
30343;BME280;17145;49.902;8.680;'2024-01-27 13:03:38';102110;;;9;38
30343;BME280;17145;49.902;8.680;'2024-01-27 13:06:07';102100;;;8;38
30343;BME280;17145;49.902;8.680;'2024-01-27 13:08:35';102100;;;8;38
30343;BME280;17145;49.902;8.680;'2024-01-27 13:11:03';102100;;;8;38
30343;BME280;17145;49.902;8.680;'2024-01-27 13:13:30';102100;;;8;38
30343;BME280;17145;49.902;8.680;'2024-01-27 13:15:58';102100;;;9;38
30343;BME280;17145;49.902;8.680;'2024-01-27 13:18:25';102110;;;9;38
30343;BME280;17145;49.902;8.680;'2024-01-27 13:20:55';102120;;;9;38
30343;BME280;17145;49.902;8.680;'2024-01-27 13:23:23';102120;;;8;37
30343;BME280;17145;49.902;8.680;'2024-01-27 13:25:53';102120;;;8;38
30343;BME280;17145;49.902;8.680;'2024-01-27 13:28:23';102120;;;8;37
30343;BME280;17145;49.902;8.680;'2024-01-27 13:30:52';102110;;;8;37
30343;BME280;17145;49.902;8.680;'2024-01-27 13:33:19';102110;;;8;36
30343;BME280;17145;49.902;8.680;'2024-01-27 13:35:47';102120;;;9;35
30343;BME280;17145;49.902;8.680;'2024-01-27 13:38:17';102120;;;9;36
30343;BME280;17145;49.902;8.680;'2024-01-27 13:40:44';102110;;;8;36
30343;BME280;17145;49.902;8.680;'2024-01-27 13:43:11';102100;;;9;36
30343;BME280;17145;49.902;8.680;'2024-01-27 13:45:39';102100;;;8;37
30343;BME280;17145;49.902;8.680;'2024-01-27 13:48:06';102090;;;8;36
30343;BME280;17145;49.902;8.680;'2024-01-27 13:50:34';102080;;;9;37
30343;BME280;17145;49.902;8.680;'2024-01-27 13:53:01';102070;;;8;36
30343;BME280;17145;49.902;8.680;'2024-01-27 13:55:29';102060;;;8;37
30343;BME280;17145;49.902;8.680;'2024-01-27 13:57:56';102050;;;9;36
30343;BME280;17145;49.902;8.680;'2024-01-27 14:00:24';102050;;;9;37
30343;BME280;17145;49.902;8.680;'2024-01-27 14:02:51';102050;;;9;37
30343;BME280;17145;49.902;8.680;'2024-01-27 14:05:19';102040;;;9;37
30343;BME280;17145;49.902;8.680;'2024-01-27 14:07:46';102040;;;9;36
30343;BME280;17145;49.902;8.680;'2024-01-27 14:10:14';102040;;;9;35
30343;BME280;17145;49.902;8.680;'2024-01-27 14:12:41';102050;;;8;36
30343;BME280;17145;49.902;8.680;'2024-01-27 14:15:09';102040;;;8;35
30343;BME280;17145;49.902;8.680;'2024-01-27 14:17:36';102040;;;9;36
30343;BME280;17145;49.902;8.680;'2024-01-27 14:20:05';102040;;;9;36
30343;BME280;17145;49.902;8.680;'2024-01-27 14:22:32';102040;;;8;37
30343;BME280;17145;49.902;8.680;'2024-01-27 14:25:00';102040;;;9;36
30343;BME280;17145;49.902;8.680;'2024-01-27 14:27:27';102030;;;8;36
30343;BME280;17145;49.902;8.680;'2024-01-27 14:29:54';102040;;;8;36
30343;BME280;17145;49.902;8.680;'2024-01-27 14:32:22';102040;;;9;36
30343;BME280;17145;49.902;8.680;'2024-01-27 14:34:49';102040;;;8;35
30343;BME280;17145;49.902;8.680;'2024-01-27 14:37:16';102030;;;9;36
30343;BME280;17145;49.902;8.680;'2024-01-27 14:39:44';102030;;;9;36
30343;BME280;17145;49.902;8.680;'2024-01-27 14:42:11';102030;;;8;36
30343;BME280;17145;49.902;8.680;'2024-01-27 14:44:38';102030;;;9;36
30343;BME280;17145;49.902;8.680;'2024-01-27 14:47:07';102020;;;9;36
30343;BME280;17145;49.902;8.680;'2024-01-27 14:49:35';102020;;;9;35
30343;BME280;17145;49.902;8.680;'2024-01-27 14:52:02';102020;;;9;35
30343;BME280;17145;49.902;8.680;'2024-01-27 14:54:29';102010;;;8;36
30343;BME280;17145;49.902;8.680;'2024-01-27 14:56:57';102010;;;8;36
30343;BME280;17145;49.902;8.680;'2024-01-27 14:59:25';102020;;;8;36
30343;BME280;17145;49.902;8.680;'2024-01-27 15:01:52';102020;;;8;37
30343;BME280;17145;49.902;8.680;'2024-01-27 15:04:19';102020;;;8;37
30343;BME280;17145;49.902;8.680;'2024-01-27 15:06:47';102020;;;8;36
30343;BME280;17145;49.902;8.680;'2024-01-27 15:09:14';102010;;;8;36
30343;BME280;17145;49.902;8.680;'2024-01-27 15:11:42';102000;;;8;36
30343;BME280;17145;49.902;8.680;'2024-01-27 15:14:09';102000;;;8;36
30343;BME280;17145;49.902;8.680;'2024-01-27 15:16:37';102000;;;8;36
30343;BME280;17145;49.902;8.680;'2024-01-27 15:19:05';101990;;;9;36
30343;BME280;17145;49.902;8.680;'2024-01-27 15:21:33';101990;;;8;36